createdAt,value
2019-04-11T00:01:12.099Z,8.28
2019-04-11T00:03:41.779Z,8.23
2019-04-11T00:06:11.837Z,7.92
2019-04-11T00:08:41.933Z,8.48
2019-04-11T00:11:13.489Z,9.08
2019-04-11T00:13:43.233Z,8.18
2019-04-11T00:16:13.106Z,8.43
2019-04-11T00:18:43.007Z,7.87
2019-04-11T00:21:12.820Z,8.20
2019-04-11T00:23:42.707Z,7.92
2019-04-11T00:26:12.168Z,8.08
2019-04-11T00:28:41.710Z,8.43
2019-04-11T00:31:11.144Z,7.47
2019-04-11T00:33:40.486Z,7.72
2019-04-11T00:36:10.370Z,7.95
2019-04-11T00:38:40.268Z,7.58
2019-04-11T00:41:09.966Z,7.87
2019-04-11T00:43:42.082Z,7.67
2019-04-11T00:46:10.529Z,7.37
2019-04-11T00:48:39.857Z,6.87
2019-04-11T00:51:09.824Z,7.78
2019-04-11T00:53:40.353Z,7.42
2019-04-11T00:56:10.911Z,7.20
2019-04-11T00:58:41.305Z,7.05
2019-04-11T01:01:12.436Z,7.40
2019-04-11T01:03:41.821Z,7.33
2019-04-11T01:06:12.211Z,7.92
2019-04-11T01:08:41.981Z,6.87
2019-04-11T01:11:11.973Z,7.35
2019-04-11T01:13:49.106Z,8.15
2019-04-11T01:16:20.587Z,7.47
2019-04-11T01:18:50.019Z,7.17
2019-04-11T01:21:20.014Z,7.10
2019-04-11T01:23:49.605Z,6.95
2019-04-11T01:26:19.177Z,7.65
2019-04-11T01:28:49.079Z,7.03
2019-04-11T01:31:20.260Z,7.62
2019-04-11T01:33:49.567Z,7.50
2019-04-11T01:36:18.877Z,7.45
2019-04-11T01:38:56.824Z,8.13
2019-04-11T01:41:26.718Z,7.65
2019-04-11T01:44:02.137Z,7.87
2019-04-11T01:46:27.192Z,7.72
2019-04-11T01:49:01.144Z,8.05
2019-04-11T01:51:30.453Z,7.70
2019-04-11T01:53:59.826Z,7.00
2019-04-11T01:56:29.387Z,7.60
2019-04-11T01:58:59.399Z,7.67
2019-04-11T02:01:30.645Z,7.90
2019-04-11T02:04:01.785Z,7.85
2019-04-11T02:06:31.998Z,7.47
2019-04-11T02:09:01.951Z,7.95
2019-04-11T02:11:32.222Z,7.83
2019-04-11T02:14:10.416Z,7.65
2019-04-11T02:16:32.768Z,8.23
2019-04-11T02:19:02.206Z,7.60
2019-04-11T02:21:31.896Z,8.05
2019-04-11T02:24:03.695Z,7.75
2019-04-11T02:26:35.620Z,7.53
2019-04-11T02:29:05.554Z,8.20
2019-04-11T02:31:47.299Z,7.50
2019-04-11T02:34:16.810Z,8.20
2019-04-11T02:36:46.597Z,7.72
2019-04-11T02:39:19.280Z,7.53
2019-04-11T02:41:47.469Z,7.42
2019-04-11T02:44:30.836Z,8.25
2019-04-11T02:46:58.053Z,8.43
2019-04-11T02:49:21.335Z,7.55
2019-04-11T02:51:51.278Z,8.60
2019-04-11T02:54:22.406Z,8.20
2019-04-11T02:56:54.565Z,8.68
2019-04-11T02:59:25.220Z,8.05
2019-04-11T03:01:55.895Z,8.35
2019-04-11T03:04:26.981Z,8.43
2019-04-11T03:06:57.386Z,7.58
2019-04-11T03:09:27.068Z,8.35
2019-04-11T03:11:58.941Z,7.80
2019-04-11T03:14:44.570Z,8.40
2019-04-11T03:17:10.686Z,7.83
2019-04-11T03:19:43.997Z,8.88
2019-04-11T03:22:03.306Z,8.30
2019-04-11T03:24:35.278Z,7.62
2019-04-11T03:27:05.713Z,8.58
2019-04-11T03:29:37.789Z,9.03
2019-04-11T03:35:20.881Z,12.28
2019-04-11T03:37:49.432Z,10.63
2019-04-11T03:39:59.272Z,9.58
2019-04-11T03:42:36.714Z,10.18
2019-04-11T03:45:11.509Z,8.58
2019-04-11T03:47:36.034Z,8.15
2019-04-11T03:50:00.705Z,8.03
2019-04-11T03:52:25.268Z,8.00
2019-04-11T03:54:56.200Z,8.25
2019-04-11T03:57:27.579Z,8.58
2019-04-11T03:59:59.293Z,7.92
2019-04-11T04:02:30.722Z,8.20
2019-04-11T04:05:01.471Z,7.75
2019-04-11T04:07:32.018Z,8.03
2019-04-11T04:10:03.036Z,8.13
2019-04-11T04:12:33.795Z,7.67
2019-04-11T04:15:29.685Z,8.15
2019-04-11T04:17:45.579Z,8.70
2019-04-11T04:20:33.217Z,8.40
2019-04-11T04:23:05.315Z,8.03
2019-04-11T04:25:36.806Z,8.13
2019-04-11T04:28:07.491Z,8.48
2019-04-11T04:30:38.905Z,7.95
2019-04-11T04:33:10.216Z,7.87
2019-04-11T04:35:40.781Z,8.38
2019-04-11T04:38:13.644Z,8.33
2019-04-11T04:41:00.405Z,8.63
2019-04-11T04:43:19.508Z,9.15
2019-04-11T04:46:03.427Z,8.58
2019-04-11T04:48:24.324Z,8.35
2019-04-11T04:50:54.426Z,8.30
2019-04-11T04:53:25.679Z,8.70
2019-04-11T04:55:54.352Z,9.05
2019-04-11T04:58:24.910Z,8.70
2019-04-11T05:00:56.681Z,9.23
2019-04-11T05:03:26.796Z,8.35
2019-04-11T05:05:56.352Z,7.72
2019-04-11T05:08:27.238Z,7.90
2019-04-11T05:10:57.868Z,8.63
2019-04-11T05:13:27.988Z,8.05
2019-04-11T05:16:09.531Z,7.58
2019-04-11T05:18:29.910Z,7.42
2019-04-11T05:20:59.287Z,8.03
2019-04-11T05:23:29.707Z,8.68
2019-04-11T05:26:00.090Z,7.67
2019-04-11T05:28:29.962Z,8.65
2019-04-11T05:31:00.438Z,8.33
2019-04-11T05:33:29.923Z,7.78
2019-04-11T05:36:00.430Z,8.08
2019-04-11T05:38:29.928Z,9.05
2019-04-11T05:40:59.233Z,7.90
2019-04-11T05:43:31.916Z,8.05
2019-04-11T05:46:00.244Z,9.48
2019-04-11T05:48:47.901Z,8.93
2019-04-11T05:51:21.237Z,8.73
2019-04-11T05:53:50.075Z,10.40
2019-04-11T05:56:21.775Z,9.25
2019-04-11T05:58:53.503Z,9.50
2019-04-11T06:01:36.238Z,8.98
2019-04-11T06:04:07.922Z,9.00
2019-04-11T06:07:14.655Z,8.40
2019-04-11T06:09:46.259Z,8.10
2019-04-11T06:12:21.234Z,9.48
2019-04-11T06:14:58.273Z,8.35
2019-04-11T06:17:27.587Z,8.70
2019-04-11T06:19:58.687Z,7.55
2019-04-11T06:22:28.117Z,8.05
2019-04-11T06:25:03.245Z,8.28
2019-04-11T06:27:36.038Z,7.72
2019-04-11T06:30:15.937Z,7.83
2019-04-11T06:32:56.307Z,7.97
2019-04-11T06:35:34.164Z,8.08
2019-04-11T06:38:06.053Z,8.50
2019-04-11T06:40:37.179Z,8.30
2019-04-11T06:43:08.160Z,8.23
2019-04-11T06:45:41.902Z,8.30
2019-04-11T06:48:27.901Z,8.20
2019-04-11T06:51:13.988Z,7.65
2019-04-11T06:53:45.050Z,7.92
2019-04-11T06:56:16.842Z,7.97
2019-04-11T06:58:54.992Z,7.97
2019-04-11T07:01:27.873Z,8.18
2019-04-11T07:03:59.136Z,7.93
2019-04-11T07:06:31.333Z,8.43
2019-04-11T07:09:12.423Z,8.68
2019-04-11T07:11:44.722Z,8.70
2019-04-11T07:14:33.666Z,8.88
2019-04-11T07:17:21.129Z,8.50
2019-04-11T07:20:08.730Z,8.18
2019-04-11T07:22:56.028Z,8.20
2019-04-11T07:25:27.005Z,8.88
2019-04-11T07:27:59.318Z,8.48
2019-04-11T07:33:24.574Z,8.35
2019-04-11T07:36:08.375Z,8.65
2019-04-11T07:38:43.290Z,9.20
2019-04-11T07:41:31.852Z,8.55
2019-04-11T07:44:01.289Z,9.60
2019-04-11T07:46:47.605Z,9.13
2019-04-11T07:49:18.549Z,9.25
2019-04-11T07:51:50.688Z,8.90
2019-04-11T07:54:20.407Z,9.58
2019-04-11T07:57:00.269Z,9.03
2019-04-11T07:59:33.933Z,9.20
2019-04-11T08:02:05.792Z,9.23
2019-04-11T08:04:53.376Z,8.93
2019-04-11T08:07:24.469Z,9.75
2019-04-11T08:09:58.041Z,9.70
2019-04-11T08:15:11.374Z,9.35
2019-04-11T08:17:43.001Z,9.43
2019-04-11T08:20:31.493Z,9.63
2019-04-11T08:23:03.562Z,9.13
2019-04-11T08:25:50.853Z,9.45
2019-04-11T08:28:20.541Z,9.98
2019-04-11T08:31:03.534Z,9.80
2019-04-11T08:33:33.098Z,10.45
2019-04-11T08:36:05.183Z,11.00
2019-04-11T08:38:34.637Z,12.47
2019-04-11T08:41:09.712Z,11.28
2019-04-11T08:43:39.344Z,10.48
2019-04-11T08:46:10.957Z,10.08
2019-04-11T08:48:42.763Z,11.85
2019-04-11T08:51:14.874Z,11.10
2019-04-11T08:54:04.846Z,10.98
2019-04-11T08:56:35.157Z,12.00
2019-04-11T08:59:27.170Z,10.78
2019-04-11T09:01:56.471Z,11.90
2019-04-11T09:04:46.241Z,11.78
2019-04-11T09:07:17.470Z,11.88
2019-04-11T09:10:04.969Z,11.20
2019-04-11T09:12:36.425Z,12.65
2019-04-11T09:15:21.175Z,10.25
2019-04-11T09:17:58.924Z,11.12
2019-04-11T09:20:45.592Z,12.45
2019-04-11T09:23:15.487Z,11.57
2019-04-11T09:26:01.715Z,11.57
2019-04-11T09:28:35.683Z,12.55
2019-04-11T09:31:23.324Z,11.83
2019-04-11T09:34:11.315Z,13.03
2019-04-11T09:36:42.333Z,12.85
2019-04-11T09:39:17.024Z,12.45
2019-04-11T09:42:05.011Z,11.45
2019-04-11T09:44:49.182Z,12.78
2019-04-11T09:47:36.225Z,11.97
2019-04-11T09:50:32.649Z,12.00
2019-04-11T09:53:01.998Z,12.05
2019-04-11T09:55:45.795Z,11.57
2019-04-11T10:01:12.586Z,11.80
2019-04-11T10:03:43.024Z,12.75
2019-04-11T10:06:14.093Z,12.13
2019-04-11T10:08:44.326Z,12.00
2019-04-11T10:11:32.395Z,12.35
2019-04-11T10:14:07.264Z,11.45
2019-04-11T10:16:54.617Z,11.30
2019-04-11T10:19:35.906Z,11.22
2019-04-11T10:22:22.785Z,12.03
2019-04-11T10:24:54.767Z,11.05
2019-04-11T10:27:31.605Z,12.00
2019-04-11T10:30:19.476Z,12.47
2019-04-11T10:32:53.333Z,11.45
2019-04-11T10:35:36.596Z,10.93
2019-04-11T10:38:08.487Z,11.48
2019-04-11T10:40:56.649Z,11.63
2019-04-11T10:43:26.630Z,10.75
2019-04-11T10:45:58.783Z,10.78
2019-04-11T10:48:38.674Z,11.63
2019-04-11T10:51:00.962Z,10.63
2019-04-11T10:53:31.815Z,10.15
2019-04-11T10:56:19.270Z,10.23
2019-04-11T10:58:51.253Z,9.48
2019-04-11T11:01:31.738Z,9.23
2019-04-11T11:04:03.375Z,11.00
2019-04-11T11:06:34.390Z,11.57
2019-04-11T11:09:12.228Z,12.25
2019-04-11T11:11:44.164Z,11.90
2019-04-11T11:14:31.316Z,11.50
2019-04-11T11:17:43.809Z,12.10
2019-04-11T11:20:16.396Z,11.90
2019-04-11T11:22:46.353Z,11.35
2019-04-11T11:25:34.897Z,11.18
2019-04-11T11:28:05.448Z,11.30
2019-04-11T11:30:39.910Z,10.70
2019-04-11T11:33:11.046Z,9.80
2019-04-11T11:35:52.102Z,10.93
2019-04-11T11:38:26.518Z,10.72
2019-04-11T11:41:12.398Z,11.22
2019-04-11T11:43:41.743Z,9.50
2019-04-11T11:46:19.661Z,9.50
2019-04-11T11:48:54.440Z,10.20
2019-04-11T11:51:29.236Z,9.90
2019-04-11T11:54:07.163Z,9.93
2019-04-11T11:56:38.223Z,10.68
2019-04-11T11:59:15.310Z,11.53
2019-04-11T12:01:56.587Z,11.10
2019-04-11T12:04:35.457Z,10.65
2019-04-11T12:07:08.632Z,10.85
2019-04-11T12:09:56.177Z,11.35
2019-04-11T12:12:36.232Z,9.50
2019-04-11T12:15:25.792Z,9.33
2019-04-11T12:18:18.088Z,10.35
2019-04-11T12:20:56.260Z,9.93
2019-04-11T12:23:53.858Z,10.63
2019-04-11T12:26:15.608Z,9.68
2019-04-11T12:28:54.219Z,9.23
2019-04-11T12:31:26.005Z,9.63
2019-04-11T12:33:57.592Z,9.20
2019-04-11T12:36:28.692Z,9.20
2019-04-11T12:39:08.954Z,9.58
2019-04-11T12:41:58.329Z,9.15
2019-04-11T12:44:29.634Z,8.40
2019-04-11T12:47:17.645Z,7.78
2019-04-11T12:49:53.026Z,9.25
2019-04-11T12:52:27.362Z,9.38
2019-04-11T12:55:01.245Z,9.43
2019-04-11T12:57:42.584Z,8.50
2019-04-11T13:00:14.127Z,8.63
2019-04-11T13:03:00.384Z,9.43
2019-04-11T13:05:33.170Z,8.60
2019-04-11T13:08:13.185Z,8.70
2019-04-11T13:10:44.221Z,9.03
2019-04-11T13:13:15.341Z,8.50
2019-04-11T13:15:46.372Z,8.78
2019-04-11T13:18:23.289Z,8.10
2019-04-11T13:21:06.441Z,9.33
2019-04-11T13:23:40.665Z,9.20
2019-04-11T13:26:20.987Z,8.33
2019-04-11T13:29:08.190Z,8.25
2019-04-11T13:31:54.418Z,8.58
2019-04-11T13:34:25.397Z,8.83
2019-04-11T13:37:12.893Z,8.85
2019-04-11T13:39:43.904Z,7.70
2019-04-11T13:42:23.745Z,7.92
2019-04-11T13:44:53.105Z,8.28
2019-04-11T13:47:29.816Z,8.00
2019-04-11T13:50:00.440Z,8.00
2019-04-11T13:52:43.583Z,8.45
2019-04-11T13:55:15.169Z,8.45
2019-04-11T13:57:46.203Z,8.33
2019-04-11T14:00:33.580Z,8.80
2019-04-11T14:03:20.837Z,8.33
2019-04-11T14:05:50.217Z,8.55
2019-04-11T14:08:30.417Z,7.87
2019-04-11T14:11:07.516Z,7.90
2019-04-11T14:13:39.676Z,6.87
2019-04-11T14:16:14.609Z,7.33
2019-04-11T14:18:58.047Z,7.40
2019-04-11T14:24:01.922Z,7.45
2019-04-11T14:26:39.129Z,7.15
2019-04-11T14:29:13.082Z,7.55
2019-04-11T14:31:54.041Z,8.10
2019-04-11T14:34:38.415Z,7.07
2019-04-11T14:37:09.374Z,8.00
2019-04-11T14:39:40.333Z,7.17
2019-04-11T14:42:17.506Z,7.90
2019-04-11T14:44:48.358Z,6.92
2019-04-11T14:47:27.901Z,7.12
2019-04-11T14:49:58.866Z,7.25
2019-04-11T14:52:35.511Z,7.12
2019-04-11T14:55:08.608Z,7.00
2019-04-11T14:57:47.617Z,6.92
2019-04-11T15:00:21.896Z,7.42
2019-04-11T15:03:02.082Z,7.58
2019-04-11T15:05:33.041Z,7.62
2019-04-11T15:08:02.368Z,7.85
2019-04-11T15:10:33.378Z,7.47
2019-04-11T15:13:02.894Z,8.10
2019-04-11T15:15:36.619Z,7.40
2019-04-11T15:18:05.956Z,7.97
2019-04-11T15:21:12.243Z,7.95
2019-04-11T15:23:41.934Z,8.08
2019-04-11T15:26:29.398Z,8.33
2019-04-11T15:29:00.402Z,9.03
2019-04-11T15:31:39.345Z,8.10
2019-04-11T15:34:19.175Z,8.30
2019-04-11T15:36:52.825Z,8.53
2019-04-11T15:39:44.757Z,8.70
2019-04-11T15:42:12.738Z,9.33
2019-04-11T15:44:49.659Z,9.50
2019-04-11T15:47:20.613Z,9.30
2019-04-11T15:50:07.847Z,9.05
2019-04-11T15:52:39.570Z,9.43
2019-04-11T15:55:26.960Z,9.58
2019-04-11T15:57:56.341Z,9.45
2019-04-11T16:00:44.333Z,9.30
2019-04-11T16:03:15.073Z,9.13
2019-04-11T16:06:03.856Z,8.95
2019-04-11T16:08:38.846Z,9.03
2019-04-11T16:11:13.922Z,9.05
2019-04-11T16:14:02.933Z,9.23
2019-04-11T16:16:36.587Z,9.15
2019-04-11T16:19:07.632Z,9.15
2019-04-11T16:21:47.566Z,8.78
2019-04-11T16:24:28.176Z,9.25
2019-04-11T16:27:17.672Z,9.03
2019-04-11T16:30:03.916Z,9.58
2019-04-11T16:32:34.931Z,8.90
2019-04-11T16:35:07.440Z,9.40
2019-04-11T16:37:36.761Z,8.90
2019-04-11T16:40:17.845Z,9.90
2019-04-11T16:42:47.630Z,10.00
2019-04-11T16:45:24.662Z,10.05
2019-04-11T16:47:56.961Z,10.23
2019-04-11T16:50:26.503Z,10.40
2019-04-11T16:52:55.914Z,10.08
2019-04-11T16:55:25.229Z,10.55
2019-04-11T16:57:54.582Z,10.75
2019-04-11T17:00:23.986Z,9.90
2019-04-11T17:02:54.995Z,11.08
2019-04-11T17:05:26.819Z,9.75
2019-04-11T17:08:06.207Z,10.63
2019-04-11T17:10:56.801Z,11.03
2019-04-11T17:13:25.981Z,11.65
2019-04-11T17:15:59.843Z,11.73
2019-04-11T17:18:27.282Z,11.60
2019-04-11T17:20:56.673Z,10.90
2019-04-11T17:23:26.055Z,13.88
2019-04-11T17:25:55.433Z,10.85
2019-04-11T17:28:24.828Z,10.85
2019-04-11T17:30:55.786Z,10.75
2019-04-11T17:33:27.748Z,11.08
2019-04-11T17:35:56.327Z,10.78
2019-04-11T17:38:25.725Z,11.15
2019-04-11T17:40:55.047Z,11.57
2019-04-11T17:43:24.473Z,10.78
2019-04-11T17:45:56.995Z,10.58
2019-04-11T17:48:24.958Z,11.50
2019-04-11T17:50:54.285Z,12.53
2019-04-11T17:53:24.986Z,10.88
2019-04-11T17:55:55.020Z,10.10
2019-04-11T17:58:26.994Z,11.38
2019-04-11T18:00:57.279Z,10.63
2019-04-11T18:03:26.757Z,11.12
2019-04-11T18:05:56.055Z,10.50
2019-04-11T18:08:25.394Z,13.18
2019-04-11T18:10:55.985Z,11.75
2019-04-11T18:13:30.571Z,12.28
2019-04-11T18:16:00.815Z,12.55
2019-04-11T18:18:28.273Z,10.82
2019-04-11T18:20:57.671Z,11.93
2019-04-11T18:23:27.163Z,12.85
2019-04-11T18:25:56.804Z,11.75
2019-04-11T18:28:26.132Z,10.43
2019-04-11T18:30:55.435Z,10.75
2019-04-11T18:33:24.845Z,11.95
2019-04-11T18:35:54.141Z,12.40
2019-04-11T18:38:23.539Z,13.28
2019-04-11T18:40:53.945Z,11.50
2019-04-11T18:43:25.468Z,11.78
2019-04-11T18:45:54.361Z,11.28
2019-04-11T18:48:23.738Z,11.05
2019-04-11T18:50:53.753Z,10.90
2019-04-11T18:53:23.302Z,10.25
2019-04-11T18:55:52.719Z,10.40
2019-04-11T18:58:22.036Z,9.95
2019-04-11T19:00:51.399Z,10.75
2019-04-11T19:03:21.100Z,11.25
2019-04-11T19:05:50.588Z,11.00
2019-04-11T19:08:20.064Z,11.03
2019-04-11T19:10:49.559Z,11.30
2019-04-11T19:13:19.161Z,11.60
2019-04-11T19:15:48.560Z,10.93
2019-04-11T19:18:18.166Z,12.40
2019-04-11T19:20:49.871Z,10.10
2019-04-11T19:23:18.656Z,10.85
2019-04-11T19:25:48.089Z,10.82
2019-04-11T19:28:17.491Z,13.05
2019-04-11T19:30:46.920Z,11.30
2019-04-11T19:33:19.018Z,10.98
2019-04-11T19:35:47.489Z,11.00
2019-04-11T19:38:24.422Z,12.13
2019-04-11T19:40:55.573Z,11.80
2019-04-11T19:43:24.990Z,12.05
2019-04-11T19:45:54.328Z,12.30
2019-04-11T19:48:25.238Z,11.45
2019-04-11T19:50:58.648Z,10.63
2019-04-11T19:53:25.940Z,11.78
2019-04-11T19:56:09.079Z,12.70
2019-04-11T19:58:38.588Z,16.55
2019-04-11T20:01:08.156Z,13.10
2019-04-11T20:03:37.497Z,12.90
2019-04-11T20:06:06.823Z,14.10
2019-04-11T20:08:36.356Z,12.50
2019-04-11T20:11:05.690Z,12.18
2019-04-11T20:13:34.990Z,12.60
2019-04-11T20:16:04.415Z,12.78
2019-04-11T20:18:33.744Z,12.95
2019-04-11T20:21:07.222Z,13.03
2019-04-11T20:23:34.249Z,13.68
2019-04-11T20:26:03.564Z,12.88
2019-04-11T20:28:33.087Z,12.20
2019-04-11T20:31:03.558Z,13.30
2019-04-11T20:33:34.673Z,12.70
2019-04-11T20:36:04.054Z,14.65
2019-04-11T20:38:33.411Z,12.95
2019-04-11T20:41:03.034Z,13.35
2019-04-11T20:43:32.537Z,13.03
2019-04-11T20:46:02.311Z,13.48
2019-04-11T20:48:34.872Z,13.22
2019-04-11T20:51:02.724Z,12.93
2019-04-11T20:53:32.029Z,12.37
2019-04-11T20:56:01.411Z,13.45
2019-04-11T20:58:30.747Z,11.45
2019-04-11T21:01:00.082Z,14.28
2019-04-11T21:03:30.221Z,12.15
2019-04-11T21:06:01.717Z,10.13
2019-04-11T21:08:33.147Z,9.85
2019-04-11T21:11:04.643Z,8.90
2019-04-11T21:13:33.374Z,8.43
2019-04-11T21:16:02.679Z,8.93
2019-04-11T21:18:31.994Z,9.00
2019-04-11T21:21:01.374Z,7.60
2019-04-11T21:23:30.647Z,7.45
2019-04-11T21:25:59.972Z,8.40
2019-04-11T21:28:30.192Z,8.35
2019-04-11T21:31:00.808Z,7.50
2019-04-11T21:33:34.263Z,7.53
2019-04-11T21:36:01.960Z,6.87
2019-04-11T21:38:31.597Z,8.15
2019-04-11T21:41:01.069Z,7.47
2019-04-11T21:43:30.370Z,8.13
2019-04-11T21:45:59.863Z,8.25
2019-04-11T21:48:29.230Z,8.38
2019-04-11T21:50:58.547Z,7.87
2019-04-11T21:53:36.519Z,8.05
2019-04-11T21:55:58.943Z,7.80
2019-04-11T21:58:28.246Z,8.70
2019-04-11T22:01:03.831Z,7.95
2019-04-11T22:03:34.757Z,8.05
2019-04-11T22:06:04.210Z,8.15
2019-04-11T22:08:34.367Z,7.55
2019-04-11T22:11:09.864Z,7.72
2019-04-11T22:13:37.941Z,7.60
2019-04-11T22:16:07.661Z,7.83
2019-04-11T22:18:36.960Z,7.97
2019-04-11T22:21:06.264Z,8.00
2019-04-11T22:23:35.575Z,8.15
2019-04-11T22:26:04.878Z,7.60
2019-04-11T22:28:34.197Z,7.83
2019-04-11T22:31:03.577Z,8.70
2019-04-11T22:33:50.941Z,7.90
2019-04-11T22:36:20.241Z,8.00
2019-04-11T22:38:49.559Z,8.80
2019-04-11T22:41:18.853Z,9.63
2019-04-11T22:43:48.161Z,8.28
2019-04-11T22:46:20.954Z,7.50
2019-04-11T22:48:48.490Z,8.10
2019-04-11T22:51:17.889Z,7.95
2019-04-11T22:53:47.221Z,8.10
2019-04-11T22:56:16.537Z,7.83
2019-04-11T22:58:45.909Z,8.43
2019-04-11T23:01:16.595Z,8.03
2019-04-11T23:03:51.015Z,8.10
2019-04-11T23:06:20.314Z,8.40
2019-04-11T23:08:49.629Z,8.08
2019-04-11T23:11:18.996Z,9.00
2019-04-11T23:13:48.318Z,8.45
2019-04-11T23:16:17.625Z,8.65
2019-04-11T23:18:46.948Z,8.83
2019-04-11T23:21:16.245Z,9.48
2019-04-11T23:23:45.570Z,9.23
2019-04-11T23:26:14.870Z,8.85
2019-04-11T23:28:46.800Z,9.35
2019-04-11T23:31:19.834Z,8.85
2019-04-11T23:33:46.880Z,8.20
2019-04-11T23:36:16.189Z,8.80
2019-04-11T23:38:45.481Z,8.35
2019-04-11T23:41:14.794Z,8.40
2019-04-11T23:43:44.105Z,8.35
2019-04-11T23:46:13.421Z,9.05
2019-04-11T23:48:42.720Z,8.70
2019-04-11T23:51:12.035Z,9.08
2019-04-11T23:53:41.344Z,10.23
2019-04-11T23:56:10.645Z,8.68
2019-04-11T23:58:39.943Z,8.85
